Clarke City, Canada
Current Conditions -  °F | °C
As of 8:00 PM on Sunday 21 Dec 2014 (Local Time) from CYZV Reporting Station
Broken Clouds Broken Clouds  
Wind Chill:   Ceiling: 1900
Heat Index: 12°   Visibility: 15mi
Dew Point:   Wind: 8mph
Humidity: 79%   Direction: 30°NNE
Pressure: 30.41"   Gusts: NA
Location:  50.2°N, 66.63°W
Report Text: CYZV 220100Z 03007KT 15SM BKN019 M11/M14 A3041 RMK SC7 SLP302
Loading
Personal Weather Stations






























Interactive Weather Map New forecast layout! Learn more

10-Day Weather Forecast

Advertisements
Track Severe Weather on mobile